Hlavní strana
METAR-TAF:

METAR-TAF

Letiště :

Cairns, Austrálie

zeměpisná šířka: 16-53S, zeměpisná délka: 145-45E, výška: 3 m

Aktuální stav počasí

Zpráva byla vytvořena před 33 minutami, v 22:30 UTC
Jihojihovýchodní vítr 9 kt
Teplota 27°C
Vlhkost vzduchu 62%
Tlak 1015 hPa
Viditelnost 10 km a více
Skoro jasno ve výšce 2800 ft

METAR: YBCS 152230Z 15009KT 9999 FEW028 27/19 Q1015 NOSIG

Čas: 09:03 (23:03 UTC)

Předpověď počasí

Zpráva byla vytvořena před 5 hodinami a 54 minutami, v 17:09 UTC
Předpověď platná od 15 v 18 UTC do 16 v 18 UTC
Jihojihovýchodní vítr 8 kt
Viditelnost 10 km a více
Skoro jasno ve výšce 2500 ft
Od 15 v 2300 UTC
Východní vítr 14 kt
Viditelnost 10 km a více
Skoro jasno ve výšce 3000 ft
Od 16 v 0800 UTC
Jihovýchodní vítr 8 kt
Viditelnost 10 km a více
Skoro jasno ve výšce 2500 ft

TAF: YBCS 151709Z 1518/1618 15008KT 9999 FEW025 FM152300 09014KT 9999 FEW030 FM160800 14008KT 9999 FEW025

Stav a předpovědi počasí z více než 4 000 letišť (zprávy METAR a TAF).

Červené a žluté tečky na mapě představují dostupné meteorologické stanice.

Když kurzor umístíte na tečku, zobrazí se název stanice.

Pak kliknutím zobrazíte stav a předpověď počasí.

Chcete-li změnit mapu, kliknutím na zelené tlačítko se znaménkem +mapu přiblížíte, kliknutím na zelené tlačítko se znaménkem – mapu oddálíte a kliknutím na zelené šipky přejdete na sousední mapy.


METAR-TAF: